sensor_id;sensor_type;location;lat;lon;timestamp;P1;durP1;ratioP1;P2;durP2;ratioP2
54983;SDS011;40884;53.562;9.940;2023-04-25T00:00:44;6.73;;;3.30;;
54983;SDS011;40884;53.562;9.940;2023-04-25T00:01:45;6.70;;;3.07;;
54983;SDS011;40884;53.562;9.940;2023-04-25T00:02:45;5.23;;;2.93;;
54983;SDS011;40884;53.562;9.940;2023-04-25T00:03:45;4.43;;;2.50;;
54983;SDS011;40884;53.562;9.940;2023-04-25T00:04:45;5.23;;;2.77;;
54983;SDS011;40884;53.562;9.940;2023-04-25T00:05:45;6.07;;;2.67;;
54983;SDS011;40884;53.562;9.940;2023-04-25T00:06:45;6.83;;;3.23;;
54983;SDS011;40884;53.562;9.940;2023-04-25T00:07:45;9.10;;;2.60;;
54983;SDS011;40884;53.562;9.940;2023-04-25T00:08:45;6.33;;;2.80;;
54983;SDS011;40884;53.562;9.940;2023-04-25T00:09:45;6.40;;;2.90;;
54983;SDS011;40884;53.562;9.940;2023-04-25T00:10:46;5.83;;;2.90;;
54983;SDS011;40884;53.562;9.940;2023-04-25T00:11:46;9.00;;;3.80;;
54983;SDS011;40884;53.562;9.940;2023-04-25T00:12:46;7.23;;;2.90;;
54983;SDS011;40884;53.562;9.940;2023-04-25T00:13:46;8.73;;;3.50;;
54983;SDS011;40884;53.562;9.940;2023-04-25T00:14:46;8.03;;;2.80;;
54983;SDS011;40884;53.562;9.940;2023-04-25T00:15:46;13.03;;;3.53;;
54983;SDS011;40884;53.562;9.940;2023-04-25T00:16:46;9.47;;;3.50;;
54983;SDS011;40884;53.562;9.940;2023-04-25T00:17:47;13.40;;;3.77;;
54983;SDS011;40884;53.562;9.940;2023-04-25T00:18:47;10.00;;;3.33;;
54983;SDS011;40884;53.562;9.940;2023-04-25T00:19:47;9.33;;;3.43;;
54983;SDS011;40884;53.562;9.940;2023-04-25T00:20:47;10.87;;;3.40;;
54983;SDS011;40884;53.562;9.940;2023-04-25T00:21:47;13.70;;;4.00;;
54983;SDS011;40884;53.562;9.940;2023-04-25T00:22:47;13.47;;;3.80;;
54983;SDS011;40884;53.562;9.940;2023-04-25T00:23:47;13.47;;;3.73;;
54983;SDS011;40884;53.562;9.940;2023-04-25T00:24:47;13.13;;;3.67;;
54983;SDS011;40884;53.562;9.940;2023-04-25T00:25:49;9.77;;;3.60;;
54983;SDS011;40884;53.562;9.940;2023-04-25T00:26:49;12.40;;;3.60;;
54983;SDS011;40884;53.562;9.940;2023-04-25T00:27:50;12.40;;;3.00;;
54983;SDS011;40884;53.562;9.940;2023-04-25T00:28:50;8.93;;;3.20;;
54983;SDS011;40884;53.562;9.940;2023-04-25T00:29:50;9.93;;;3.30;;
54983;SDS011;40884;53.562;9.940;2023-04-25T00:30:51;14.47;;;3.33;;
54983;SDS011;40884;53.562;9.940;2023-04-25T00:31:51;11.43;;;3.63;;
54983;SDS011;40884;53.562;9.940;2023-04-25T00:32:52;10.67;;;3.13;;
54983;SDS011;40884;53.562;9.940;2023-04-25T00:33:52;13.30;;;3.77;;
54983;SDS011;40884;53.562;9.940;2023-04-25T00:34:52;13.03;;;3.40;;
54983;SDS011;40884;53.562;9.940;2023-04-25T00:35:52;10.83;;;3.00;;
54983;SDS011;40884;53.562;9.940;2023-04-25T00:36:52;7.10;;;2.13;;
54983;SDS011;40884;53.562;9.940;2023-04-25T00:37:53;10.50;;;2.73;;
54983;SDS011;40884;53.562;9.940;2023-04-25T00:38:54;12.17;;;3.30;;
54983;SDS011;40884;53.562;9.940;2023-04-25T00:39:54;16.83;;;3.73;;
54983;SDS011;40884;53.562;9.940;2023-04-25T00:40:54;15.37;;;3.47;;
54983;SDS011;40884;53.562;9.940;2023-04-25T00:41:54;16.33;;;4.20;;
54983;SDS011;40884;53.562;9.940;2023-04-25T00:42:54;18.47;;;4.70;;
54983;SDS011;40884;53.562;9.940;2023-04-25T00:43:54;15.10;;;3.83;;
54983;SDS011;40884;53.562;9.940;2023-04-25T00:44:55;15.27;;;3.60;;
54983;SDS011;40884;53.562;9.940;2023-04-25T00:45:55;14.30;;;3.73;;
54983;SDS011;40884;53.562;9.940;2023-04-25T00:46:56;13.20;;;3.77;;
54983;SDS011;40884;53.562;9.940;2023-04-25T00:47:57;16.53;;;3.77;;
54983;SDS011;40884;53.562;9.940;2023-04-25T00:48:57;17.30;;;3.77;;
54983;SDS011;40884;53.562;9.940;2023-04-25T00:49:57;16.40;;;3.53;;
54983;SDS011;40884;53.562;9.940;2023-04-25T00:50:58;16.73;;;3.67;;
54983;SDS011;40884;53.562;9.940;2023-04-25T00:51:58;13.90;;;3.50;;
54983;SDS011;40884;53.562;9.940;2023-04-25T00:52:59;15.97;;;3.67;;
54983;SDS011;40884;53.562;9.940;2023-04-25T00:53:59;16.80;;;4.30;;
54983;SDS011;40884;53.562;9.940;2023-04-25T00:54:59;18.17;;;3.93;;
54983;SDS011;40884;53.562;9.940;2023-04-25T00:56:00;15.20;;;3.93;;
54983;SDS011;40884;53.562;9.940;2023-04-25T00:57:00;14.73;;;3.93;;
54983;SDS011;40884;53.562;9.940;2023-04-25T00:58:00;17.83;;;3.80;;
54983;SDS011;40884;53.562;9.940;2023-04-25T00:59:00;21.30;;;4.23;;
54983;SDS011;40884;53.562;9.940;2023-04-25T01:00:01;17.03;;;3.77;;
54983;SDS011;40884;53.562;9.940;2023-04-25T01:01:02;15.97;;;3.80;;
54983;SDS011;40884;53.562;9.940;2023-04-25T01:02:02;14.33;;;3.77;;
54983;SDS011;40884;53.562;9.940;2023-04-25T01:03:02;17.30;;;3.90;;
54983;SDS011;40884;53.562;9.940;2023-04-25T01:04:03;13.13;;;3.77;;
54983;SDS011;40884;53.562;9.940;2023-04-25T01:05:03;14.33;;;3.77;;
54983;SDS011;40884;53.562;9.940;2023-04-25T01:06:04;13.77;;;3.53;;
54983;SDS011;40884;53.562;9.940;2023-04-25T01:07:04;18.07;;;4.43;;
54983;SDS011;40884;53.562;9.940;2023-04-25T01:08:04;16.00;;;3.80;;
54983;SDS011;40884;53.562;9.940;2023-04-25T01:09:04;14.93;;;3.53;;
54983;SDS011;40884;53.562;9.940;2023-04-25T01:10:05;17.50;;;3.70;;
54983;SDS011;40884;53.562;9.940;2023-04-25T01:11:06;12.90;;;3.50;;
54983;SDS011;40884;53.562;9.940;2023-04-25T01:12:06;18.23;;;3.97;;
54983;SDS011;40884;53.562;9.940;2023-04-25T01:13:06;15.33;;;3.90;;
54983;SDS011;40884;53.562;9.940;2023-04-25T01:14:07;16.37;;;4.87;;
54983;SDS011;40884;53.562;9.940;2023-04-25T01:15:07;15.97;;;4.00;;
54983;SDS011;40884;53.562;9.940;2023-04-25T01:16:07;19.50;;;4.10;;
54983;SDS011;40884;53.562;9.940;2023-04-25T01:17:08;16.83;;;3.80;;
54983;SDS011;40884;53.562;9.940;2023-04-25T01:18:08;13.97;;;3.47;;
54983;SDS011;40884;53.562;9.940;2023-04-25T01:19:08;15.43;;;4.27;;
54983;SDS011;40884;53.562;9.940;2023-04-25T01:20:09;15.87;;;4.00;;
54983;SDS011;40884;53.562;9.940;2023-04-25T01:21:11;17.93;;;3.80;;
54983;SDS011;40884;53.562;9.940;2023-04-25T01:22:12;18.77;;;3.93;;
54983;SDS011;40884;53.562;9.940;2023-04-25T01:23:13;14.90;;;3.67;;
54983;SDS011;40884;53.562;9.940;2023-04-25T01:24:13;15.60;;;3.97;;
54983;SDS011;40884;53.562;9.940;2023-04-25T01:25:14;19.97;;;4.30;;
54983;SDS011;40884;53.562;9.940;2023-04-25T01:26:14;17.13;;;3.97;;
54983;SDS011;40884;53.562;9.940;2023-04-25T01:27:15;14.47;;;3.40;;
54983;SDS011;40884;53.562;9.940;2023-04-25T01:28:15;19.60;;;4.67;;
54983;SDS011;40884;53.562;9.940;2023-04-25T01:29:16;16.33;;;3.70;;
54983;SDS011;40884;53.562;9.940;2023-04-25T01:30:17;17.87;;;4.37;;
54983;SDS011;40884;53.562;9.940;2023-04-25T01:31:17;17.40;;;4.53;;
54983;SDS011;40884;53.562;9.940;2023-04-25T01:32:18;16.20;;;4.50;;
54983;SDS011;40884;53.562;9.940;2023-04-25T01:33:18;18.77;;;3.73;;
54983;SDS011;40884;53.562;9.940;2023-04-25T01:34:19;15.03;;;4.23;;
54983;SDS011;40884;53.562;9.940;2023-04-25T01:35:19;15.47;;;3.73;;
54983;SDS011;40884;53.562;9.940;2023-04-25T01:36:19;15.73;;;5.17;;
54983;SDS011;40884;53.562;9.940;2023-04-25T01:37:20;17.83;;;4.13;;
54983;SDS011;40884;53.562;9.940;2023-04-25T01:38:21;19.70;;;4.30;;
54983;SDS011;40884;53.562;9.940;2023-04-25T01:39:21;15.23;;;4.03;;
54983;SDS011;40884;53.562;9.940;2023-04-25T01:40:21;18.83;;;4.13;;
54983;SDS011;40884;53.562;9.940;2023-04-25T01:41:21;13.90;;;4.23;;
54983;SDS011;40884;53.562;9.940;2023-04-25T01:42:22;16.07;;;4.20;;
54983;SDS011;40884;53.562;9.940;2023-04-25T01:43:22;16.00;;;4.93;;
54983;SDS011;40884;53.562;9.940;2023-04-25T01:44:22;15.77;;;4.17;;
54983;SDS011;40884;53.562;9.940;2023-04-25T01:45:22;22.73;;;4.83;;
54983;SDS011;40884;53.562;9.940;2023-04-25T01:46:22;17.97;;;4.17;;
54983;SDS011;40884;53.562;9.940;2023-04-25T01:47:23;15.83;;;4.20;;
54983;SDS011;40884;53.562;9.940;2023-04-25T01:48:23;20.97;;;4.50;;
54983;SDS011;40884;53.562;9.940;2023-04-25T01:49:23;18.00;;;4.17;;
54983;SDS011;40884;53.562;9.940;2023-04-25T01:50:23;16.70;;;5.10;;
54983;SDS011;40884;53.562;9.940;2023-04-25T01:51:23;14.37;;;4.40;;
54983;SDS011;40884;53.562;9.940;2023-04-25T01:52:24;15.43;;;4.30;;
54983;SDS011;40884;53.562;9.940;2023-04-25T01:53:24;12.87;;;3.80;;
54983;SDS011;40884;53.562;9.940;2023-04-25T01:54:24;13.77;;;4.47;;
54983;SDS011;40884;53.562;9.940;2023-04-25T01:55:25;20.43;;;4.57;;
54983;SDS011;40884;53.562;9.940;2023-04-25T01:56:36;17.60;;;3.90;;
54983;SDS011;40884;53.562;9.940;2023-04-25T01:57:37;20.53;;;5.13;;
54983;SDS011;40884;53.562;9.940;2023-04-25T01:58:37;18.90;;;4.60;;
54983;SDS011;40884;53.562;9.940;2023-04-25T01:59:43;21.23;;;4.50;;
54983;SDS011;40884;53.562;9.940;2023-04-25T02:00:55;15.60;;;3.87;;
54983;SDS011;40884;53.562;9.940;2023-04-25T02:01:58;17.90;;;4.53;;
54983;SDS011;40884;53.562;9.940;2023-04-25T02:03:02;16.17;;;3.90;;
54983;SDS011;40884;53.562;9.940;2023-04-25T02:04:06;18.43;;;5.33;;
54983;SDS011;40884;53.562;9.940;2023-04-25T02:05:09;15.37;;;4.00;;
54983;SDS011;40884;53.562;9.940;2023-04-25T02:06:13;17.80;;;4.50;;
54983;SDS011;40884;53.562;9.940;2023-04-25T02:07:17;22.03;;;5.00;;
54983;SDS011;40884;53.562;9.940;2023-04-25T02:08:26;16.07;;;3.90;;
54983;SDS011;40884;53.562;9.940;2023-04-25T02:09:28;17.47;;;4.57;;
54983;SDS011;40884;53.562;9.940;2023-04-25T02:10:30;16.03;;;3.97;;
54983;SDS011;40884;53.562;9.940;2023-04-25T02:11:48;22.17;;;4.13;;
54983;SDS011;40884;53.562;9.940;2023-04-25T02:13:01;19.40;;;4.30;;
54983;SDS011;40884;53.562;9.940;2023-04-25T02:14:16;17.83;;;4.57;;
54983;SDS011;40884;53.562;9.940;2023-04-25T02:15:30;14.87;;;4.30;;
54983;SDS011;40884;53.562;9.940;2023-04-25T02:16:35;21.57;;;4.90;;
54983;SDS011;40884;53.562;9.940;2023-04-25T02:17:35;22.10;;;4.03;;
54983;SDS011;40884;53.562;9.940;2023-04-25T02:18:35;18.37;;;4.27;;
54983;SDS011;40884;53.562;9.940;2023-04-25T02:19:35;18.60;;;4.03;;
54983;SDS011;40884;53.562;9.940;2023-04-25T02:20:36;17.33;;;4.67;;
54983;SDS011;40884;53.562;9.940;2023-04-25T02:21:36;16.10;;;3.73;;
54983;SDS011;40884;53.562;9.940;2023-04-25T02:22:37;19.40;;;4.10;;
54983;SDS011;40884;53.562;9.940;2023-04-25T02:23:39;17.87;;;4.63;;
54983;SDS011;40884;53.562;9.940;2023-04-25T02:24:40;24.60;;;4.47;;
54983;SDS011;40884;53.562;9.940;2023-04-25T02:25:40;21.17;;;4.73;;
54983;SDS011;40884;53.562;9.940;2023-04-25T02:26:40;19.80;;;4.20;;
54983;SDS011;40884;53.562;9.940;2023-04-25T02:27:42;17.40;;;4.60;;
54983;SDS011;40884;53.562;9.940;2023-04-25T02:28:42;17.37;;;4.40;;
54983;SDS011;40884;53.562;9.940;2023-04-25T02:30:51;15.90;;;3.93;;
54983;SDS011;40884;53.562;9.940;2023-04-25T02:31:51;20.30;;;4.47;;
54983;SDS011;40884;53.562;9.940;2023-04-25T02:32:52;14.93;;;3.93;;
54983;SDS011;40884;53.562;9.940;2023-04-25T02:33:52;19.63;;;4.00;;
54983;SDS011;40884;53.562;9.940;2023-04-25T02:34:52;19.47;;;4.50;;
54983;SDS011;40884;53.562;9.940;2023-04-25T02:35:53;18.20;;;4.37;;
54983;SDS011;40884;53.562;9.940;2023-04-25T02:36:55;16.47;;;4.07;;
54983;SDS011;40884;53.562;9.940;2023-04-25T02:37:55;18.13;;;4.50;;
54983;SDS011;40884;53.562;9.940;2023-04-25T02:38:56;16.03;;;3.97;;
54983;SDS011;40884;53.562;9.940;2023-04-25T02:39:56;23.57;;;4.83;;
54983;SDS011;40884;53.562;9.940;2023-04-25T02:40:56;17.77;;;5.07;;
54983;SDS011;40884;53.562;9.940;2023-04-25T02:41:59;21.47;;;5.30;;
54983;SDS011;40884;53.562;9.940;2023-04-25T02:43:02;14.57;;;3.67;;
54983;SDS011;40884;53.562;9.940;2023-04-25T02:44:02;11.93;;;3.90;;
54983;SDS011;40884;53.562;9.940;2023-04-25T02:45:02;20.47;;;4.73;;
54983;SDS011;40884;53.562;9.940;2023-04-25T02:46:03;17.90;;;3.90;;
54983;SDS011;40884;53.562;9.940;2023-04-25T02:47:03;20.90;;;4.50;;
54983;SDS011;40884;53.562;9.940;2023-04-25T02:48:03;23.33;;;5.10;;
54983;SDS011;40884;53.562;9.940;2023-04-25T02:49:06;15.03;;;3.90;;
54983;SDS011;40884;53.562;9.940;2023-04-25T02:50:06;19.33;;;3.93;;
54983;SDS011;40884;53.562;9.940;2023-04-25T02:51:06;17.07;;;4.20;;
54983;SDS011;40884;53.562;9.940;2023-04-25T02:52:06;15.00;;;3.73;;
54983;SDS011;40884;53.562;9.940;2023-04-25T02:53:07;17.30;;;4.00;;
54983;SDS011;40884;53.562;9.940;2023-04-25T02:54:13;19.83;;;5.57;;
54983;SDS011;40884;53.562;9.940;2023-04-25T02:55:17;21.67;;;5.07;;
54983;SDS011;40884;53.562;9.940;2023-04-25T02:56:18;16.70;;;4.13;;
54983;SDS011;40884;53.562;9.940;2023-04-25T02:57:18;14.93;;;3.70;;
54983;SDS011;40884;53.562;9.940;2023-04-25T02:58:18;15.97;;;4.20;;
54983;SDS011;40884;53.562;9.940;2023-04-25T02:59:22;14.93;;;3.87;;
54983;SDS011;40884;53.562;9.940;2023-04-25T03:00:22;16.13;;;3.90;;
54983;SDS011;40884;53.562;9.940;2023-04-25T03:01:22;16.80;;;4.23;;
54983;SDS011;40884;53.562;9.940;2023-04-25T03:02:23;14.03;;;3.67;;
54983;SDS011;40884;53.562;9.940;2023-04-25T03:03:23;12.00;;;3.47;;
54983;SDS011;40884;53.562;9.940;2023-04-25T03:04:24;16.70;;;3.50;;
54983;SDS011;40884;53.562;9.940;2023-04-25T03:05:24;15.13;;;3.63;;
54983;SDS011;40884;53.562;9.940;2023-04-25T03:06:24;18.27;;;4.33;;
54983;SDS011;40884;53.562;9.940;2023-04-25T03:07:24;15.83;;;3.50;;
54983;SDS011;40884;53.562;9.940;2023-04-25T03:08:24;14.70;;;2.93;;
54983;SDS011;40884;53.562;9.940;2023-04-25T03:09:24;20.63;;;4.47;;
54983;SDS011;40884;53.562;9.940;2023-04-25T03:10:26;12.73;;;3.73;;
54983;SDS011;40884;53.562;9.940;2023-04-25T03:11:26;13.77;;;3.73;;
54983;SDS011;40884;53.562;9.940;2023-04-25T03:12:27;13.00;;;3.57;;
54983;SDS011;40884;53.562;9.940;2023-04-25T03:13:27;19.17;;;3.93;;
54983;SDS011;40884;53.562;9.940;2023-04-25T03:14:28;13.80;;;4.50;;
54983;SDS011;40884;53.562;9.940;2023-04-25T03:15:28;13.27;;;3.33;;
54983;SDS011;40884;53.562;9.940;2023-04-25T03:16:28;17.13;;;4.17;;
54983;SDS011;40884;53.562;9.940;2023-04-25T03:17:29;14.47;;;3.77;;
54983;SDS011;40884;53.562;9.940;2023-04-25T03:18:29;12.40;;;3.20;;
54983;SDS011;40884;53.562;9.940;2023-04-25T03:19:29;15.47;;;4.20;;
54983;SDS011;40884;53.562;9.940;2023-04-25T03:20:29;16.27;;;3.63;;
54983;SDS011;40884;53.562;9.940;2023-04-25T03:21:30;16.70;;;4.23;;
54983;SDS011;40884;53.562;9.940;2023-04-25T03:22:31;14.07;;;3.60;;
54983;SDS011;40884;53.562;9.940;2023-04-25T03:23:32;14.13;;;3.43;;
54983;SDS011;40884;53.562;9.940;2023-04-25T03:24:32;15.63;;;3.93;;
54983;SDS011;40884;53.562;9.940;2023-04-25T03:25:32;14.10;;;3.50;;
54983;SDS011;40884;53.562;9.940;2023-04-25T03:26:32;16.90;;;3.90;;
54983;SDS011;40884;53.562;9.940;2023-04-25T03:27:33;17.83;;;4.43;;
54983;SDS011;40884;53.562;9.940;2023-04-25T03:28:33;17.20;;;4.07;;
54983;SDS011;40884;53.562;9.940;2023-04-25T03:29:33;20.63;;;4.07;;
54983;SDS011;40884;53.562;9.940;2023-04-25T03:30:37;15.07;;;3.23;;
54983;SDS011;40884;53.562;9.940;2023-04-25T03:31:37;14.33;;;3.30;;
54983;SDS011;40884;53.562;9.940;2023-04-25T03:32:37;17.63;;;3.87;;
54983;SDS011;40884;53.562;9.940;2023-04-25T03:33:37;15.30;;;3.93;;
54983;SDS011;40884;53.562;9.940;2023-04-25T03:34:38;17.50;;;4.27;;
54983;SDS011;40884;53.562;9.940;2023-04-25T03:35:38;15.67;;;4.13;;
54983;SDS011;40884;53.562;9.940;2023-04-25T03:36:38;12.40;;;3.40;;
54983;SDS011;40884;53.562;9.940;2023-04-25T03:37:38;12.10;;;3.37;;
54983;SDS011;40884;53.562;9.940;2023-04-25T03:38:38;15.87;;;3.50;;
54983;SDS011;40884;53.562;9.940;2023-04-25T03:39:40;12.40;;;3.40;;
54983;SDS011;40884;53.562;9.940;2023-04-25T03:40:41;21.23;;;3.90;;
54983;SDS011;40884;53.562;9.940;2023-04-25T03:41:54;15.03;;;3.60;;
54983;SDS011;40884;53.562;9.940;2023-04-25T03:42:54;19.93;;;4.30;;
54983;SDS011;40884;53.562;9.940;2023-04-25T03:43:55;16.50;;;3.57;;
54983;SDS011;40884;53.562;9.940;2023-04-25T03:44:55;13.73;;;3.17;;
54983;SDS011;40884;53.562;9.940;2023-04-25T03:45:55;12.17;;;3.47;;
54983;SDS011;40884;53.562;9.940;2023-04-25T03:46:56;18.90;;;4.23;;
54983;SDS011;40884;53.562;9.940;2023-04-25T03:47:57;14.50;;;3.73;;
54983;SDS011;40884;53.562;9.940;2023-04-25T03:48:58;20.67;;;3.60;;
54983;SDS011;40884;53.562;9.940;2023-04-25T03:50:05;12.93;;;3.87;;
54983;SDS011;40884;53.562;9.940;2023-04-25T03:51:05;16.40;;;3.90;;
54983;SDS011;40884;53.562;9.940;2023-04-25T03:52:08;15.40;;;3.53;;
54983;SDS011;40884;53.562;9.940;2023-04-25T03:53:12;11.40;;;3.90;;
54983;SDS011;40884;53.562;9.940;2023-04-25T03:54:31;17.03;;;4.00;;
54983;SDS011;40884;53.562;9.940;2023-04-25T03:55:37;17.10;;;3.23;;
54983;SDS011;40884;53.562;9.940;2023-04-25T03:56:42;16.17;;;3.53;;
54983;SDS011;40884;53.562;9.940;2023-04-25T03:57:51;12.73;;;3.47;;
54983;SDS011;40884;53.562;9.940;2023-04-25T03:58:51;17.07;;;3.50;;
54983;SDS011;40884;53.562;9.940;2023-04-25T03:59:53;11.80;;;3.47;;
54983;SDS011;40884;53.562;9.940;2023-04-25T04:00:54;13.13;;;3.77;;
54983;SDS011;40884;53.562;9.940;2023-04-25T04:01:54;13.73;;;3.73;;
54983;SDS011;40884;53.562;9.940;2023-04-25T04:02:55;17.00;;;4.33;;
54983;SDS011;40884;53.562;9.940;2023-04-25T04:03:55;13.47;;;3.43;;
54983;SDS011;40884;53.562;9.940;2023-04-25T04:04:55;13.27;;;3.07;;
54983;SDS011;40884;53.562;9.940;2023-04-25T04:05:55;12.87;;;3.60;;
54983;SDS011;40884;53.562;9.940;2023-04-25T04:06:55;12.43;;;2.77;;
54983;SDS011;40884;53.562;9.940;2023-04-25T04:07:59;10.77;;;3.30;;
54983;SDS011;40884;53.562;9.940;2023-04-25T04:09:00;16.10;;;3.90;;
54983;SDS011;40884;53.562;9.940;2023-04-25T04:10:00;12.70;;;3.07;;
54983;SDS011;40884;53.562;9.940;2023-04-25T04:11:06;10.27;;;2.67;;
54983;SDS011;40884;53.562;9.940;2023-04-25T04:12:07;10.37;;;3.10;;
54983;SDS011;40884;53.562;9.940;2023-04-25T04:13:07;14.50;;;3.17;;
54983;SDS011;40884;53.562;9.940;2023-04-25T04:14:08;12.43;;;3.73;;
54983;SDS011;40884;53.562;9.940;2023-04-25T04:15:09;12.73;;;3.33;;
54983;SDS011;40884;53.562;9.940;2023-04-25T04:16:09;11.83;;;3.30;;
54983;SDS011;40884;53.562;9.940;2023-04-25T04:17:10;13.07;;;3.40;;
54983;SDS011;40884;53.562;9.940;2023-04-25T04:18:10;13.47;;;3.03;;
54983;SDS011;40884;53.562;9.940;2023-04-25T04:19:10;13.20;;;3.43;;
54983;SDS011;40884;53.562;9.940;2023-04-25T04:20:12;15.67;;;3.37;;
54983;SDS011;40884;53.562;9.940;2023-04-25T04:21:14;12.80;;;2.87;;
54983;SDS011;40884;53.562;9.940;2023-04-25T04:22:15;13.97;;;3.07;;
54983;SDS011;40884;53.562;9.940;2023-04-25T04:23:16;11.57;;;3.43;;
54983;SDS011;40884;53.562;9.940;2023-04-25T04:24:16;12.60;;;3.07;;
54983;SDS011;40884;53.562;9.940;2023-04-25T04:25:24;12.93;;;3.43;;
54983;SDS011;40884;53.562;9.940;2023-04-25T04:26:44;11.67;;;2.90;;
54983;SDS011;40884;53.562;9.940;2023-04-25T04:28:03;13.57;;;3.70;;
54983;SDS011;40884;53.562;9.940;2023-04-25T04:29:26;12.43;;;3.30;;
54983;SDS011;40884;53.562;9.940;2023-04-25T04:30:53;15.07;;;3.73;;
54983;SDS011;40884;53.562;9.940;2023-04-25T04:31:53;12.20;;;2.90;;
54983;SDS011;40884;53.562;9.940;2023-04-25T04:32:54;14.77;;;3.83;;
54983;SDS011;40884;53.562;9.940;2023-04-25T04:33:55;14.93;;;3.50;;
54983;SDS011;40884;53.562;9.940;2023-04-25T04:34:55;13.13;;;3.00;;
54983;SDS011;40884;53.562;9.940;2023-04-25T04:35:57;10.13;;;2.90;;
54983;SDS011;40884;53.562;9.940;2023-04-25T04:36:57;10.67;;;3.20;;
54983;SDS011;40884;53.562;9.940;2023-04-25T04:37:57;14.07;;;3.30;;
54983;SDS011;40884;53.562;9.940;2023-04-25T04:39:00;15.10;;;3.87;;
54983;SDS011;40884;53.562;9.940;2023-04-25T04:40:09;9.57;;;2.50;;
54983;SDS011;40884;53.562;9.940;2023-04-25T04:41:17;15.07;;;3.20;;
54983;SDS011;40884;53.562;9.940;2023-04-25T04:42:28;11.20;;;2.73;;
54983;SDS011;40884;53.562;9.940;2023-04-25T04:43:49;12.00;;;3.20;;
54983;SDS011;40884;53.562;9.940;2023-04-25T04:45:18;15.38;;;3.63;;
54983;SDS011;40884;53.562;9.940;2023-04-25T04:46:22;15.20;;;3.23;;
54983;SDS011;40884;53.562;9.940;2023-04-25T04:47:48;13.50;;;3.60;;
54983;SDS011;40884;53.562;9.940;2023-04-25T04:49:09;10.63;;;2.90;;
54983;SDS011;40884;53.562;9.940;2023-04-25T04:50:20;12.45;;;2.80;;
54983;SDS011;40884;53.562;9.940;2023-04-25T04:51:39;16.10;;;3.83;;
54983;SDS011;40884;53.562;9.940;2023-04-25T04:52:59;16.83;;;4.03;;
54983;SDS011;40884;53.562;9.940;2023-04-25T04:54:28;13.98;;;3.22;;
54983;SDS011;40884;53.562;9.940;2023-04-25T04:55:48;13.93;;;3.40;;
54983;SDS011;40884;53.562;9.940;2023-04-25T04:56:57;13.00;;;3.15;;
54983;SDS011;40884;53.562;9.940;2023-04-25T04:58:05;12.13;;;3.37;;
54983;SDS011;40884;53.562;9.940;2023-04-25T04:59:20;13.03;;;2.87;;
54983;SDS011;40884;53.562;9.940;2023-04-25T05:00:41;15.57;;;3.17;;
54983;SDS011;40884;53.562;9.940;2023-04-25T05:01:53;19.23;;;3.27;;
54983;SDS011;40884;53.562;9.940;2023-04-25T05:02:59;15.33;;;3.40;;
54983;SDS011;40884;53.562;9.940;2023-04-25T05:04:23;15.60;;;3.13;;
54983;SDS011;40884;53.562;9.940;2023-04-25T05:05:42;11.87;;;3.20;;
54983;SDS011;40884;53.562;9.940;2023-04-25T05:07:00;13.60;;;3.43;;
54983;SDS011;40884;53.562;9.940;2023-04-25T05:08:15;15.00;;;3.47;;
54983;SDS011;40884;53.562;9.940;2023-04-25T05:09:26;11.20;;;3.33;;
54983;SDS011;40884;53.562;9.940;2023-04-25T05:10:47;13.70;;;3.10;;
54983;SDS011;40884;53.562;9.940;2023-04-25T05:11:57;12.83;;;2.97;;
54983;SDS011;40884;53.562;9.940;2023-04-25T05:13:16;14.77;;;3.27;;
54983;SDS011;40884;53.562;9.940;2023-04-25T05:14:30;12.60;;;3.33;;
54983;SDS011;40884;53.562;9.940;2023-04-25T05:15:48;13.60;;;3.90;;
54983;SDS011;40884;53.562;9.940;2023-04-25T05:16:59;12.67;;;3.10;;
54983;SDS011;40884;53.562;9.940;2023-04-25T05:18:18;9.90;;;2.83;;
54983;SDS011;40884;53.562;9.940;2023-04-25T05:19:21;10.10;;;2.80;;
54983;SDS011;40884;53.562;9.940;2023-04-25T05:20:41;14.43;;;3.40;;
54983;SDS011;40884;53.562;9.940;2023-04-25T05:22:08;14.00;;;3.72;;
54983;SDS011;40884;53.562;9.940;2023-04-25T05:23:14;12.00;;;3.13;;
54983;SDS011;40884;53.562;9.940;2023-04-25T05:24:49;11.90;;;3.58;;
54983;SDS011;40884;53.562;9.940;2023-04-25T05:26:09;13.35;;;3.15;;
54983;SDS011;40884;53.562;9.940;2023-04-25T05:27:25;15.80;;;3.42;;
54983;SDS011;40884;53.562;9.940;2023-04-25T05:28:42;10.55;;;3.67;;
54983;SDS011;40884;53.562;9.940;2023-04-25T05:29:50;11.07;;;3.50;;
54983;SDS011;40884;53.562;9.940;2023-04-25T05:30:57;13.27;;;3.40;;
54983;SDS011;40884;53.562;9.940;2023-04-25T05:32:12;8.52;;;3.17;;
54983;SDS011;40884;53.562;9.940;2023-04-25T05:33:12;15.60;;;3.70;;
54983;SDS011;40884;53.562;9.940;2023-04-25T05:34:12;15.80;;;3.90;;
54983;SDS011;40884;53.562;9.940;2023-04-25T05:35:34;12.23;;;3.47;;
54983;SDS011;40884;53.562;9.940;2023-04-25T05:36:34;10.90;;;3.20;;
54983;SDS011;40884;53.562;9.940;2023-04-25T05:37:34;14.60;;;2.50;;
54983;SDS011;40884;53.562;9.940;2023-04-25T05:38:45;13.10;;;3.27;;
54983;SDS011;40884;53.562;9.940;2023-04-25T05:39:48;12.70;;;2.97;;
54983;SDS011;40884;53.562;9.940;2023-04-25T05:41:00;13.73;;;3.20;;
54983;SDS011;40884;53.562;9.940;2023-04-25T05:42:14;13.27;;;3.67;;
54983;SDS011;40884;53.562;9.940;2023-04-25T05:43:52;12.87;;;3.00;;
54983;SDS011;40884;53.562;9.940;2023-04-25T05:44:59;11.60;;;2.90;;
54983;SDS011;40884;53.562;9.940;2023-04-25T05:46:08;14.13;;;3.50;;
54983;SDS011;40884;53.562;9.940;2023-04-25T05:47:27;14.45;;;3.45;;
54983;SDS011;40884;53.562;9.940;2023-04-25T05:48:39;11.52;;;3.35;;
54983;SDS011;40884;53.562;9.940;2023-04-25T05:50:05;13.87;;;3.60;;
54983;SDS011;40884;53.562;9.940;2023-04-25T05:51:22;12.80;;;3.07;;
54983;SDS011;40884;53.562;9.940;2023-04-25T05:52:40;16.30;;;4.30;;
54983;SDS011;40884;53.562;9.940;2023-04-25T05:53:58;14.20;;;3.97;;
54983;SDS011;40884;53.562;9.940;2023-04-25T05:54:58;12.53;;;4.07;;
54983;SDS011;40884;53.562;9.940;2023-04-25T05:55:58;12.27;;;3.70;;
54983;SDS011;40884;53.562;9.940;2023-04-25T05:57:00;12.23;;;3.47;;
54983;SDS011;40884;53.562;9.940;2023-04-25T05:58:00;12.93;;;3.30;;
54983;SDS011;40884;53.562;9.940;2023-04-25T05:59:01;12.60;;;3.70;;
54983;SDS011;40884;53.562;9.940;2023-04-25T06:00:01;14.20;;;3.27;;
54983;SDS011;40884;53.562;9.940;2023-04-25T06:01:13;11.18;;;3.05;;
54983;SDS011;40884;53.562;9.940;2023-04-25T06:02:13;12.13;;;3.40;;
54983;SDS011;40884;53.562;9.940;2023-04-25T06:03:14;11.03;;;3.00;;
54983;SDS011;40884;53.562;9.940;2023-04-25T06:04:15;9.07;;;3.00;;
54983;SDS011;40884;53.562;9.940;2023-04-25T06:05:15;15.47;;;3.27;;
54983;SDS011;40884;53.562;9.940;2023-04-25T06:06:15;13.23;;;3.03;;
54983;SDS011;40884;53.562;9.940;2023-04-25T06:07:15;11.10;;;3.00;;
54983;SDS011;40884;53.562;9.940;2023-04-25T06:08:15;10.30;;;3.27;;
54983;SDS011;40884;53.562;9.940;2023-04-25T06:09:16;9.83;;;2.63;;
54983;SDS011;40884;53.562;9.940;2023-04-25T06:10:16;9.13;;;3.00;;
54983;SDS011;40884;53.562;9.940;2023-04-25T06:11:17;9.90;;;2.90;;
54983;SDS011;40884;53.562;9.940;2023-04-25T06:12:17;14.23;;;3.07;;
54983;SDS011;40884;53.562;9.940;2023-04-25T06:13:17;10.10;;;3.10;;
54983;SDS011;40884;53.562;9.940;2023-04-25T06:14:17;11.63;;;3.23;;
54983;SDS011;40884;53.562;9.940;2023-04-25T06:15:22;11.57;;;3.10;;
54983;SDS011;40884;53.562;9.940;2023-04-25T06:16:22;9.20;;;2.80;;
54983;SDS011;40884;53.562;9.940;2023-04-25T06:17:22;16.77;;;3.73;;
54983;SDS011;40884;53.562;9.940;2023-04-25T06:18:23;13.53;;;3.10;;
54983;SDS011;40884;53.562;9.940;2023-04-25T06:19:23;9.30;;;3.13;;
54983;SDS011;40884;53.562;9.940;2023-04-25T06:20:24;10.37;;;2.60;;